Time;durP1;ratioP1;P1;durP2;ratioP2;P2;SDS_P1;SDS_P2;PMS_P1;PMS_P2;Temp;Humidity;BMP_temperature;BMP_pressure;BME280_temperature;BME280_humidity;BME280_pressure;Samples;Min_cycle;Max_cycle;Signal;HPM_P1;HPM_P2
2022/07/03 00:01:59;;;;;;;2.57;2.33;;;21.80;91.60;;;;;;5026963;28;20721;-71
2022/07/03 00:04:25;;;;;;;3.00;2.80;;;21.80;92.10;;;;;;5027790;28;20209;-71
2022/07/03 00:06:54;;;;;;;2.60;2.40;;;21.80;91.70;;;;;;5027885;28;20216;-71
2022/07/03 00:09:22;;;;;;;2.43;2.30;;;21.80;91.80;;;;;;5048978;28;20242;-71
2022/07/03 00:11:49;;;;;;;2.70;2.50;;;21.70;91.90;;;;;;5050734;28;20577;-71
2022/07/03 00:14:16;;;;;;;2.15;2.00;;;21.70;91.90;;;;;;5050891;28;20212;-71
2022/07/03 00:16:44;;;;;;;2.60;2.40;;;21.70;92.00;;;;;;5039614;28;20207;-71
2022/07/03 00:19:10;;;;;;;2.40;2.23;;;21.70;92.00;;;;;;5030543;28;20580;-71
2022/07/03 00:21:44;;;;;;;2.60;2.40;;;21.60;92.10;;;;;;5030564;28;20235;-71
2022/07/03 00:24:18;;;;;;;2.75;2.50;;;21.60;92.20;;;;;;5047347;28;20695;-71
2022/07/03 00:26:52;;;;;;;2.47;2.28;;;21.60;92.20;;;;;;5039744;28;20201;-71
2022/07/03 00:29:21;;;;;;;2.40;2.30;;;21.50;92.40;;;;;;5034998;28;20192;-71
2022/07/03 00:31:49;;;;;;;2.57;2.40;;;21.60;92.40;;;;;;5049917;28;20201;-71
2022/07/03 00:34:18;;;;;;;2.53;2.43;;;21.50;92.30;;;;;;5050395;28;20209;-71
2022/07/03 00:36:47;;;;;;;2.30;2.20;;;21.50;92.70;;;;;;5050001;28;20204;-71
2022/07/03 00:39:15;;;;;;;2.80;2.40;;;21.50;92.60;;;;;;5050593;28;20208;-71
2022/07/03 00:41:44;;;;;;;2.70;2.60;;;21.40;92.60;;;;;;5045272;28;20231;-71
2022/07/03 00:44:12;;;;;;;3.30;2.60;;;21.40;92.70;;;;;;5042699;28;20208;-71
2022/07/03 00:46:39;;;;;;;3.77;2.27;;;21.40;92.90;;;;;;5050207;28;20204;-71
2022/07/03 00:49:09;;;;;;;2.57;2.37;;;21.30;92.80;;;;;;5050163;28;20215;-71
2022/07/03 00:51:40;;;;;;;2.57;2.47;;;21.30;93.00;;;;;;5047813;28;20204;-71
2022/07/03 00:54:10;;;;;;;3.17;2.40;;;21.30;93.00;;;;;;5040598;28;20204;-71
2022/07/03 00:56:39;;;;;;;2.80;2.40;;;21.30;93.00;;;;;;5050034;28;20239;-71
2022/07/03 00:59:06;;;;;;;2.70;2.53;;;21.20;93.00;;;;;;5050070;28;20208;-71
2022/07/03 01:01:38;;;;;;;2.67;2.47;;;21.20;93.20;;;;;;5050070;28;20231;-71
2022/07/03 01:04:18;;;;;;;2.67;2.43;;;21.10;93.30;;;;;;5049610;28;20651;-72
2022/07/03 01:06:53;;;;;;;2.67;2.57;;;21.10;93.40;;;;;;5049695;28;20195;-71
2022/07/03 01:09:29;;;;;;;3.37;2.50;;;21.10;93.40;;;;;;5050035;28;20265;-71
2022/07/03 01:12:03;;;;;;;3.10;2.80;;;21.10;93.40;;;;;;5049944;28;20224;-71
2022/07/03 01:14:40;;;;;;;2.60;2.50;;;21.00;93.40;;;;;;5048397;28;20547;-71
2022/07/03 01:17:16;;;;;;;2.73;2.63;;;21.00;93.60;;;;;;5048734;28;20191;-71
2022/07/03 01:19:45;;;;;;;2.73;2.30;;;21.00;93.70;;;;;;5035751;28;20230;-71
2022/07/03 01:22:33;;;;;;;2.80;2.60;;;21.00;93.70;;;;;;5049024;28;20246;-71
2022/07/03 01:25:25;;;;;;;6.23;2.83;;;20.90;93.70;;;;;;5040764;28;20203;-71
2022/07/03 01:28:08;;;;;;;2.83;2.67;;;20.90;93.90;;;;;;5049863;28;20200;-71
2022/07/03 01:30:38;;;;;;;3.27;3.07;;;20.90;94.00;;;;;;5048948;28;20238;-71
2022/07/03 01:33:08;;;;;;;3.10;2.90;;;20.80;94.00;;;;;;5049516;28;20736;-71
2022/07/03 01:35:37;;;;;;;3.10;2.90;;;20.80;94.00;;;;;;5048818;28;20208;-71
2022/07/03 01:38:06;;;;;;;2.87;2.67;;;20.80;94.00;;;;;;5048884;28;20200;-71
2022/07/03 01:40:35;;;;;;;3.07;2.87;;;20.70;94.10;;;;;;5049528;28;20291;-71
2022/07/03 01:43:05;;;;;;;2.67;2.57;;;20.70;94.20;;;;;;5049232;28;20248;-71
2022/07/03 01:45:35;;;;;;;2.60;2.50;;;20.70;94.30;;;;;;5037198;28;20215;-71
2022/07/03 01:48:05;;;;;;;2.90;2.70;;;20.70;94.40;;;;;;5033775;28;20688;-71
2022/07/03 01:50:33;;;;;;;3.00;2.80;;;20.60;94.30;;;;;;5049129;28;20208;-71
2022/07/03 01:53:02;;;;;;;2.97;2.77;;;20.60;94.40;;;;;;5048801;28;20211;-71
2022/07/03 01:55:32;;;;;;;4.40;3.00;;;20.60;94.50;;;;;;5049236;28;20238;-71
2022/07/03 01:57:59;;;;;;;3.60;3.20;;;20.60;94.60;;;;;;5049401;28;20207;-72
2022/07/03 02:00:28;;;;;;;2.93;2.73;;;20.60;94.60;;;;;;5045488;28;20678;-71
2022/07/03 02:02:59;;;;;;;3.60;2.77;;;20.60;94.80;;;;;;5049056;28;20627;-71
2022/07/03 02:05:35;;;;;;;3.00;2.80;;;20.60;94.80;;;;;;5048914;28;20655;-71
2022/07/03 02:08:09;;;;;;;3.03;2.90;;;20.50;94.90;;;;;;5048681;28;20201;-71
2022/07/03 02:10:45;;;;;;;2.70;2.50;;;20.60;95.00;;;;;;5048825;28;20192;-71
2022/07/03 02:13:17;;;;;;;3.73;3.00;;;20.50;95.10;;;;;;5032228;28;20233;-71
2022/07/03 02:15:49;;;;;;;3.10;2.90;;;20.50;95.00;;;;;;5028937;28;20196;-71
2022/07/03 02:18:27;;;;;;;3.83;3.40;;;20.50;95.00;;;;;;5028849;28;20197;-71
2022/07/03 02:21:05;;;;;;;3.07;2.93;;;20.50;95.10;;;;;;5028246;28;20227;-71
2022/07/03 02:23:36;;;;;;;4.77;3.17;;;20.50;95.30;;;;;;5038725;28;20220;-71
2022/07/03 02:26:12;;;;;;;3.37;3.07;;;20.50;96.00;;;;;;5038811;28;20575;-71
2022/07/03 02:28:55;;;;;;;2.97;2.87;;;20.40;96.30;;;;;;5048695;28;20198;-71
2022/07/03 02:31:27;;;;;;;3.27;3.07;;;20.40;96.10;;;;;;5027681;28;20640;-71
2022/07/03 02:33:57;;;;;;;3.10;2.90;;;20.30;96.00;;;;;;5028897;28;20287;-71
2022/07/03 02:36:28;;;;;;;3.20;3.00;;;20.20;96.00;;;;;;5028273;28;20296;-71
2022/07/03 02:38:57;;;;;;;3.27;2.97;;;20.20;96.40;;;;;;5028517;28;20200;-71
2022/07/03 02:41:30;;;;;;;3.43;3.13;;;20.10;96.50;;;;;;5032825;28;20213;-71
2022/07/03 02:44:01;;;;;;;3.53;2.93;;;20.10;96.80;;;;;;5039063;28;20207;-71
2022/07/03 02:46:50;;;;;;;3.30;3.10;;;20.00;97.20;;;;;;5048240;28;20200;-71
2022/07/03 02:49:48;;;;;;;3.37;3.17;;;20.00;97.40;;;;;;5048282;28;20196;-71
2022/07/03 02:52:22;;;;;;;5.00;3.30;;;20.00;97.50;;;;;;5033810;28;20670;-71
2022/07/03 02:54:52;;;;;;;3.10;2.77;;;20.00;97.20;;;;;;5047947;28;20203;-71
2022/07/03 02:57:20;;;;;;;3.70;3.20;;;20.00;96.90;;;;;;5047568;28;20211;-71
2022/07/03 02:59:55;;;;;;;3.20;3.00;;;20.10;97.10;;;;;;5047701;28;20681;-72
2022/07/03 03:02:42;;;;;;;3.73;3.07;;;20.10;96.90;;;;;;5046891;28;20208;-71
2022/07/03 03:05:14;;;;;;;3.40;2.83;;;20.10;97.00;;;;;;5047780;28;20203;-72
2022/07/03 03:07:54;;;;;;;3.17;3.03;;;20.10;96.80;;;;;;5040723;28;20193;-72
2022/07/03 03:10:21;;;;;;;4.60;3.80;;;20.20;96.80;;;;;;5027906;28;20193;-72
2022/07/03 03:12:51;;;;;;;3.47;3.23;;;20.10;97.60;;;;;;5028760;28;20323;-72
2022/07/03 03:15:21;;;;;;;3.30;3.10;;;20.10;98.00;;;;;;5047560;28;20658;-71
2022/07/03 03:17:52;;;;;;;3.50;3.20;;;20.00;98.30;;;;;;5046756;28;21199;-72
2022/07/03 03:20:24;;;;;;;4.07;3.57;;;20.10;97.70;;;;;;5047636;28;20291;-72
2022/07/03 03:23:12;;;;;;;3.63;3.03;;;20.00;98.10;;;;;;5047366;28;20224;-71
2022/07/03 03:25:39;;;;;;;3.17;2.97;;;20.10;97.90;;;;;;5047474;28;20609;-72
2022/07/03 03:28:06;;;;;;;3.77;3.57;;;20.10;97.90;;;;;;5047018;28;20203;-72
2022/07/03 03:30:33;;;;;;;3.53;3.30;;;20.10;98.10;;;;;;5047353;28;20805;-71
2022/07/03 03:33:01;;;;;;;3.60;3.30;;;20.10;98.10;;;;;;5047696;28;20227;-71
2022/07/03 03:35:28;;;;;;;3.23;3.13;;;20.00;98.00;;;;;;5047830;28;20211;-72
2022/07/03 03:37:55;;;;;;;4.50;3.40;;;20.00;98.20;;;;;;5046359;28;20219;-71
2022/07/03 03:40:22;;;;;;;3.23;2.77;;;20.00;98.10;;;;;;5047509;28;20207;-72
2022/07/03 03:42:48;;;;;;;4.57;3.27;;;20.00;98.10;;;;;;5048660;28;20242;-71
2022/07/03 03:45:15;;;;;;;3.40;3.20;;;20.00;98.00;;;;;;5031752;28;20205;-72
2022/07/03 03:47:42;;;;;;;3.30;3.10;;;20.00;98.00;;;;;;5035220;28;20196;-71
2022/07/03 03:50:11;;;;;;;3.77;3.57;;;20.00;98.20;;;;;;5051488;28;20670;-72
2022/07/03 03:52:38;;;;;;;4.97;3.77;;;20.00;97.80;;;;;;5038566;28;20566;-72
2022/07/03 03:55:05;;;;;;;3.50;3.30;;;20.00;97.90;;;;;;5051024;28;20603;-71
2022/07/03 03:57:34;;;;;;;4.67;3.43;;;20.10;98.20;;;;;;5051116;28;20211;-71
2022/07/03 04:00:01;;;;;;;3.30;3.10;;;20.00;98.30;;;;;;5051271;28;20571;-71
2022/07/03 04:02:28;;;;;;;3.63;3.33;;;20.00;97.70;;;;;;5038028;28;20311;-71
2022/07/03 04:04:55;;;;;;;3.50;3.30;;;20.00;97.90;;;;;;5031500;28;20564;-71
2022/07/03 04:07:23;;;;;;;3.43;3.13;;;20.00;97.70;;;;;;5030960;28;20681;-71
2022/07/03 04:09:50;;;;;;;3.97;3.70;;;20.00;97.90;;;;;;5031397;28;20209;-71
2022/07/03 04:12:19;;;;;;;3.93;3.67;;;19.90;98.20;;;;;;5041204;28;20295;-71
2022/07/03 04:14:45;;;;;;;4.83;3.50;;;20.00;98.40;;;;;;5039887;28;20205;-72
2022/07/03 04:17:12;;;;;;;3.77;3.53;;;19.90;98.10;;;;;;5030917;28;20205;-71
2022/07/03 04:19:39;;;;;;;3.77;3.53;;;19.90;98.00;;;;;;5030928;28;20212;-72
2022/07/03 04:22:09;;;;;;;3.70;3.30;;;19.90;98.10;;;;;;5030666;28;20200;-71
2022/07/03 04:24:37;;;;;;;3.50;3.20;;;19.90;98.20;;;;;;5030875;28;20754;-71
2022/07/03 04:27:04;;;;;;;3.70;3.50;;;19.90;98.30;;;;;;5031030;28;20205;-71
2022/07/03 04:29:31;;;;;;;6.30;3.83;;;19.90;98.60;;;;;;5043060;28;20228;-72
2022/07/03 04:31:58;;;;;;;3.40;3.20;;;19.90;98.70;;;;;;5062485;28;20250;-71
2022/07/03 04:34:24;;;;;;;3.13;3.03;;;19.80;98.50;;;;;;5042366;28;20228;-72
2022/07/03 04:36:51;;;;;;;4.37;3.37;;;19.90;98.60;;;;;;5030360;28;20201;-71
2022/07/03 04:39:18;;;;;;;3.93;3.40;;;19.90;98.60;;;;;;5030516;28;20227;-72
2022/07/03 04:41:46;;;;;;;3.53;3.13;;;19.90;98.40;;;;;;5035681;28;20204;-71
2022/07/03 04:44:13;;;;;;;3.60;3.40;;;19.90;98.40;;;;;;5037615;28;20240;-72
2022/07/03 04:46:40;;;;;;;5.07;3.50;;;19.90;98.60;;;;;;5030297;28;20212;-71
2022/07/03 04:49:07;;;;;;;4.63;3.50;;;19.90;98.60;;;;;;5035573;28;20235;-71
2022/07/03 04:51:33;;;;;;;3.90;3.60;;;20.00;98.70;;;;;;5049812;28;20216;-71
2022/07/03 04:54:00;;;;;;;3.67;3.30;;;20.00;98.80;;;;;;5041907;28;20209;-72
2022/07/03 04:56:27;;;;;;;3.57;3.37;;;20.00;98.90;;;;;;5030251;28;20205;-71
2022/07/03 04:58:55;;;;;;;3.67;3.37;;;20.00;98.90;;;;;;5030230;28;20216;-71
2022/07/03 05:01:22;;;;;;;3.53;3.33;;;20.10;99.10;;;;;;5031399;28;20209;-71
2022/07/03 05:03:48;;;;;;;3.10;2.90;;;20.10;99.00;;;;;;5029783;28;20790;-71
2022/07/03 05:06:15;;;;;;;3.70;3.40;;;20.10;98.80;;;;;;5029785;28;20205;-71
2022/07/03 05:08:42;;;;;;;3.67;3.10;;;20.10;98.90;;;;;;5030220;28;20201;-72
2022/07/03 05:11:09;;;;;;;3.40;3.20;;;20.10;98.90;;;;;;5029606;28;20240;-71
2022/07/03 05:13:36;;;;;;;4.23;3.43;;;20.20;99.00;;;;;;5037587;28;20208;-71
2022/07/03 05:16:06;;;;;;;3.73;3.40;;;20.10;98.90;;;;;;5049833;28;21044;-72
2022/07/03 05:18:34;;;;;;;3.40;3.20;;;20.20;99.20;;;;;;5049807;28;20586;-71
2022/07/03 05:21:01;;;;;;;3.23;3.07;;;20.20;99.30;;;;;;5049599;28;20208;-71
2022/07/03 05:23:28;;;;;;;3.70;3.50;;;20.20;99.60;;;;;;5048941;28;20234;-71
2022/07/03 05:25:55;;;;;;;3.50;3.30;;;20.30;99.10;;;;;;5040415;28;20209;-71
2022/07/03 05:28:22;;;;;;;3.07;2.87;;;20.30;98.90;;;;;;5029815;28;20251;-71
2022/07/03 05:30:49;;;;;;;3.07;2.87;;;20.40;99.20;;;;;;5045659;28;20240;-71
2022/07/03 05:33:17;;;;;;;3.23;3.03;;;20.40;99.20;;;;;;5037538;28;20209;-71
2022/07/03 05:35:44;;;;;;;3.77;3.40;;;20.40;98.80;;;;;;5029651;28;20201;-71
2022/07/03 05:38:10;;;;;;;2.90;2.80;;;20.40;98.80;;;;;;5029626;28;20219;-71
2022/07/03 05:40:38;;;;;;;3.67;3.37;;;20.40;99.00;;;;;;5029426;28;20197;-71
2022/07/03 05:43:05;;;;;;;3.40;3.20;;;20.50;98.80;;;;;;5033642;28;20789;-71
2022/07/03 05:45:32;;;;;;;3.27;3.10;;;20.50;99.20;;;;;;5048276;28;20200;-71
2022/07/03 05:47:59;;;;;;;3.40;3.20;;;20.50;99.20;;;;;;5049183;28;20211;-71
2022/07/03 05:50:27;;;;;;;4.97;3.63;;;20.60;99.30;;;;;;5049330;28;20212;-71
2022/07/03 05:52:54;;;;;;;3.33;2.80;;;20.60;99.20;;;;;;5045054;28;20209;-72
2022/07/03 05:55:21;;;;;;;2.97;2.80;;;20.60;99.00;;;;;;5030682;28;20204;-71
2022/07/03 05:57:47;;;;;;;3.30;3.10;;;20.70;98.60;;;;;;5028734;28;20544;-71
2022/07/03 06:00:15;;;;;;;3.17;2.97;;;20.70;98.90;;;;;;5029078;28;20208;-72
2022/07/03 06:02:41;;;;;;;3.03;2.83;;;20.70;98.90;;;;;;5027929;28;20765;-71
2022/07/03 06:05:09;;;;;;;3.07;2.93;;;20.80;99.10;;;;;;5028929;28;20671;-71
2022/07/03 06:07:37;;;;;;;2.93;2.83;;;20.80;98.60;;;;;;5028654;28;20353;-71
2022/07/03 06:10:05;;;;;;;3.13;2.93;;;20.80;98.40;;;;;;5028894;28;20213;-71
2022/07/03 06:12:31;;;;;;;3.20;2.90;;;20.90;98.70;;;;;;5028660;28;20225;-72
2022/07/03 06:14:58;;;;;;;3.83;2.67;;;20.90;98.60;;;;;;5047232;28;20212;-71
2022/07/03 06:17:25;;;;;;;2.93;2.73;;;20.90;98.90;;;;;;5048688;28;20204;-71
2022/07/03 06:19:52;;;;;;;2.73;2.60;;;21.00;98.60;;;;;;5048631;28;20212;-72
2022/07/03 06:22:18;;;;;;;3.43;2.63;;;21.00;98.80;;;;;;5048387;28;20211;-71
2022/07/03 06:24:46;;;;;;;2.70;2.60;;;21.00;98.60;;;;;;5031381;28;20228;-71
2022/07/03 06:27:13;;;;;;;2.90;2.70;;;21.10;99.00;;;;;;5033061;28;20208;-72
2022/07/03 06:29:40;;;;;;;2.40;2.30;;;21.10;98.40;;;;;;5028367;28;20247;-72
2022/07/03 06:32:07;;;;;;;2.50;2.40;;;21.20;98.50;;;;;;5028793;28;20224;-71
2022/07/03 06:34:34;;;;;;;2.53;2.33;;;21.20;97.80;;;;;;5028791;28;20224;-72
2022/07/03 06:37:01;;;;;;;3.50;2.77;;;21.20;98.00;;;;;;5028280;28;20204;-71
2022/07/03 06:39:28;;;;;;;2.60;2.50;;;21.30;98.20;;;;;;5028298;28;20660;-71
2022/07/03 06:41:56;;;;;;;3.50;2.63;;;21.30;97.80;;;;;;5035564;28;20208;-72
2022/07/03 06:44:22;;;;;;;2.70;2.50;;;21.30;97.80;;;;;;5047524;28;21027;-72
2022/07/03 06:46:49;;;;;;;2.97;2.67;;;21.40;97.60;;;;;;5047914;28;20209;-71
2022/07/03 06:49:16;;;;;;;3.10;2.27;;;21.40;97.50;;;;;;5047950;28;20701;-71
2022/07/03 06:51:43;;;;;;;2.43;2.33;;;21.40;97.40;;;;;;5047893;28;20215;-71
2022/07/03 06:54:09;;;;;;;2.80;2.70;;;21.50;97.90;;;;;;5046952;28;20205;-72
2022/07/03 06:56:38;;;;;;;2.53;2.43;;;21.50;97.60;;;;;;5047874;28;20223;-71
2022/07/03 06:59:06;;;;;;;2.45;2.35;;;21.60;97.90;;;;;;5047965;28;20204;-72
2022/07/03 07:01:33;;;;;;;2.70;2.55;;;21.60;97.80;;;;;;5047707;28;20201;-72
2022/07/03 07:04:00;;;;;;;2.80;2.70;;;21.60;97.30;;;;;;5037892;28;20713;-71
2022/07/03 07:06:27;;;;;;;2.60;2.50;;;21.70;97.80;;;;;;5030721;28;20204;-72
2022/07/03 07:08:54;;;;;;;5.07;2.80;;;21.70;97.40;;;;;;5047758;28;20211;-71
2022/07/03 07:11:20;;;;;;;3.27;2.97;;;21.70;97.60;;;;;;5047439;28;20649;-71
2022/07/03 07:13:47;;;;;;;2.97;2.78;;;21.80;97.20;;;;;;5046591;28;20208;-71
2022/07/03 07:16:15;;;;;;;2.63;2.53;;;21.80;98.00;;;;;;5047187;28;20203;-71
2022/07/03 07:18:42;;;;;;;2.80;2.60;;;21.80;97.90;;;;;;5047668;28;20232;-72
2022/07/03 07:21:10;;;;;;;3.78;2.80;;;21.90;97.40;;;;;;5047207;28;20210;-71
2022/07/03 07:23:37;;;;;;;3.03;2.65;;;21.90;97.50;;;;;;5035202;28;20236;-72
2022/07/03 07:26:07;;;;;;;3.00;2.80;;;21.90;97.90;;;;;;5027681;28;20341;-72
2022/07/03 07:28:34;;;;;;;3.45;2.70;;;22.00;98.40;;;;;;5027640;28;20205;-71
2022/07/03 07:31:03;;;;;;;2.60;2.50;;;22.00;98.20;;;;;;5045736;28;20285;-71
2022/07/03 07:33:32;;;;;;;2.63;2.42;;;22.00;98.00;;;;;;5047075;28;20753;-71
2022/07/03 07:35:58;;;;;;;2.63;2.42;;;22.10;97.90;;;;;;5046921;28;20659;-71
2022/07/03 07:38:25;;;;;;;2.30;2.20;;;22.10;97.00;;;;;;5047382;28;20204;-72
2022/07/03 07:40:52;;;;;;;2.50;2.28;;;22.10;97.10;;;;;;5047269;28;20207;-69
2022/07/03 07:43:19;;;;;;;2.45;2.28;;;22.20;97.10;;;;;;5046557;28;20239;-70
2022/07/03 07:45:45;;;;;;;2.15;2.05;;;22.20;96.90;;;;;;5047177;28;20208;-70
2022/07/03 07:48:12;;;;;;;2.20;2.10;;;22.20;96.40;;;;;;5047102;28;20215;-70
2022/07/03 07:50:40;;;;;;;2.75;2.50;;;22.30;96.60;;;;;;5047477;28;20211;-70
2022/07/03 07:53:07;;;;;;;15.35;2.90;;;22.30;97.00;;;;;;5046227;28;20211;-70
2022/07/03 07:55:34;;;;;;;2.35;2.25;;;22.30;97.10;;;;;;5047125;28;20658;-71
2022/07/03 07:58:00;;;;;;;2.75;2.25;;;22.40;97.30;;;;;;5047116;28;20219;-71
2022/07/03 08:00:27;;;;;;;3.97;3.75;;;22.40;97.00;;;;;;5035021;28;20689;-71
2022/07/03 08:05:40;;;;;;;2.13;2.03;;;22.50;95.90;;;;;;5027059;28;20200;-71
2022/07/03 08:08:09;;;;;;;2.17;2.08;;;22.60;95.70;;;;;;5026993;28;20216;-70
2022/07/03 08:10:38;;;;;;;3.38;2.45;;;22.60;95.80;;;;;;5027081;28;20208;-71
2022/07/03 08:13:05;;;;;;;3.42;2.30;;;22.60;95.80;;;;;;5030241;28;20219;-71
2022/07/03 08:15:32;;;;;;;2.30;2.17;;;22.70;95.40;;;;;;5046239;28;20682;-71
2022/07/03 08:17:58;;;;;;;3.30;2.50;;;22.70;95.90;;;;;;5046836;28;20231;-71
2022/07/03 08:20:25;;;;;;;2.17;2.08;;;22.80;95.30;;;;;;5046656;28;20705;-71
2022/07/03 08:22:54;;;;;;;1.85;1.85;;;22.80;95.20;;;;;;5046317;28;20660;-71
2022/07/03 08:25:20;;;;;;;2.53;2.33;;;22.90;95.40;;;;;;5030431;28;20225;-71
2022/07/03 08:27:48;;;;;;;2.60;2.40;;;22.90;95.30;;;;;;5027585;28;20211;-71
2022/07/03 08:30:17;;;;;;;2.45;2.25;;;23.00;94.80;;;;;;5030450;28;20233;-71
2022/07/03 08:32:44;;;;;;;1.90;1.80;;;23.00;95.10;;;;;;5031024;28;20225;-71
2022/07/03 08:35:11;;;;;;;4.30;2.40;;;23.00;95.60;;;;;;5044424;28;20212;-71
2022/07/03 08:37:40;;;;;;;2.20;2.10;;;23.10;95.40;;;;;;5037429;28;20204;-71
2022/07/03 08:40:10;;;;;;;2.65;2.03;;;23.10;95.80;;;;;;5030572;28;20240;-71
2022/07/03 08:42:38;;;;;;;2.50;2.30;;;23.10;95.00;;;;;;5030587;28;20240;-71
2022/07/03 08:45:07;;;;;;;3.78;2.33;;;23.10;94.40;;;;;;5049901;28;20691;-71
2022/07/03 08:47:34;;;;;;;2.22;2.13;;;23.20;94.70;;;;;;5049822;28;20224;-71
2022/07/03 08:50:02;;;;;;;2.45;2.35;;;23.20;94.70;;;;;;5049851;28;20204;-71
2022/07/03 08:52:30;;;;;;;7.75;2.50;;;23.30;94.30;;;;;;5049342;28;20200;-71
2022/07/03 08:54:56;;;;;;;2.50;2.30;;;23.30;94.40;;;;;;5050251;28;20246;-71
2022/07/03 08:57:27;;;;;;;2.13;1.95;;;23.40;94.50;;;;;;5049902;28;20219;-71
2022/07/03 08:59:55;;;;;;;2.30;2.20;;;23.40;93.70;;;;;;5050372;28;20208;-71
2022/07/03 09:02:23;;;;;;;2.50;2.30;;;23.50;94.10;;;;;;5040895;28;20215;-71
2022/07/03 09:04:50;;;;;;;3.33;3.13;;;23.60;93.80;;;;;;5046396;28;20224;-71
2022/07/03 09:07:19;;;;;;;2.60;2.40;;;23.60;93.60;;;;;;5049434;28;20581;-71
2022/07/03 09:09:47;;;;;;;2.35;2.20;;;23.60;93.80;;;;;;5050142;28;20215;-70
2022/07/03 09:12:14;;;;;;;2.00;1.90;;;23.70;94.20;;;;;;5046455;28;20216;-70
2022/07/03 09:14:42;;;;;;;2.47;2.28;;;23.80;93.80;;;;;;5045905;28;20215;-70
2022/07/03 09:17:10;;;;;;;2.17;2.08;;;23.80;93.80;;;;;;5029600;28;20694;-71
2022/07/03 09:19:42;;;;;;;2.55;2.10;;;23.90;92.80;;;;;;5029838;28;20242;-71
2022/07/03 09:22:23;;;;;;;2.78;2.58;;;23.90;93.10;;;;;;5029386;28;20770;-71
2022/07/03 09:24:50;;;;;;;2.28;2.15;;;23.90;93.30;;;;;;5049554;28;20227;-71
2022/07/03 09:27:18;;;;;;;2.85;2.13;;;23.90;93.20;;;;;;5049506;28;20270;-71
2022/07/03 09:30:02;;;;;;;2.38;2.13;;;24.00;93.60;;;;;;5049289;28;20309;-71
2022/07/03 09:32:34;;;;;;;2.30;2.10;;;24.00;93.50;;;;;;5041272;28;20199;-71
2022/07/03 09:35:18;;;;;;;2.45;2.20;;;24.00;93.50;;;;;;5049503;28;20201;-70
2022/07/03 09:37:54;;;;;;;2.15;2.05;;;24.00;92.90;;;;;;5049107;28;20596;-71
2022/07/03 09:40:22;;;;;;;2.58;2.40;;;24.10;92.60;;;;;;5049181;28;20208;-71
2022/07/03 09:43:00;;;;;;;3.22;2.08;;;24.20;93.00;;;;;;5047736;28;20294;-70
2022/07/03 09:45:47;;;;;;;4.07;2.10;;;24.20;93.00;;;;;;5048803;28;20247;-71
2022/07/03 09:48:22;;;;;;;2.08;1.98;;;24.30;92.50;;;;;;5049225;28;20216;-71
2022/07/03 09:50:49;;;;;;;2.28;2.17;;;24.40;93.00;;;;;;5049001;28;20192;-71
2022/07/03 09:53:16;;;;;;;2.00;1.90;;;24.40;93.10;;;;;;5048411;28;20200;-71
2022/07/03 09:55:56;;;;;;;3.92;2.25;;;24.50;92.80;;;;;;5049030;28;20646;-71
2022/07/03 09:58:23;;;;;;;2.50;2.30;;;24.50;92.20;;;;;;5048552;28;20188;-71
2022/07/03 10:00:51;;;;;;;2.30;2.13;;;24.60;91.60;;;;;;5048952;28;20558;-71
2022/07/03 10:03:22;;;;;;;2.10;2.00;;;24.70;91.90;;;;;;5029231;28;20205;-71
2022/07/03 10:05:48;;;;;;;1.80;1.80;;;24.70;92.40;;;;;;5028751;28;20283;-71
2022/07/03 10:08:17;;;;;;;2.22;2.05;;;24.70;92.40;;;;;;5028630;28;20223;-71
2022/07/03 10:10:46;;;;;;;2.10;2.00;;;24.70;92.50;;;;;;5031838;28;20252;-71
2022/07/03 10:13:13;;;;;;;2.15;2.05;;;24.80;92.40;;;;;;5033147;28;20208;-71
2022/07/03 10:15:42;;;;;;;2.28;2.00;;;24.80;93.70;;;;;;5048692;28;20200;-71
2022/07/03 10:18:11;;;;;;;2.17;2.08;;;24.90;92.80;;;;;;5047906;28;20674;-71
2022/07/03 10:20:41;;;;;;;2.08;1.98;;;24.90;92.90;;;;;;5037029;28;20203;-71
2022/07/03 10:23:08;;;;;;;2.00;1.90;;;25.00;92.00;;;;;;5038062;28;20203;-71
2022/07/03 10:25:36;;;;;;;2.33;2.05;;;25.10;91.90;;;;;;5048383;28;20244;-71
2022/07/03 10:28:03;;;;;;;2.28;2.08;;;25.20;92.70;;;;;;5048362;28;20208;-71
2022/07/03 10:30:31;;;;;;;2.25;2.08;;;25.30;93.50;;;;;;5048108;28;20236;-71
2022/07/03 10:32:58;;;;;;;2.28;2.17;;;25.40;93.00;;;;;;5028142;28;20213;-71
2022/07/03 10:35:33;;;;;;;1.77;1.77;;;25.60;92.30;;;;;;5028149;28;20209;-71
2022/07/03 10:38:13;;;;;;;2.13;1.92;;;25.60;92.10;;;;;;5027946;28;20292;-71
2022/07/03 10:46:23;;;;;;;2.05;1.83;;;25.90;92.30;;;;;;5033232;28;20235;-71
2022/07/03 10:48:57;;;;;;;1.77;1.75;;;26.00;91.50;;;;;;5031637;28;20658;-71
2022/07/03 10:51:27;;;;;;;2.13;2.03;;;26.10;91.30;;;;;;5044342;28;20654;-71
2022/07/03 10:54:17;;;;;;;2.85;1.95;;;26.20;92.40;;;;;;5038861;28;20667;-71
2022/07/03 10:57:24;;;;;;;1.98;1.77;;;26.30;92.50;;;;;;5030255;28;20189;-70
2022/07/03 11:00:14;;;;;;;2.05;1.80;;;26.40;91.60;;;;;;5029630;28;20213;-70
2022/07/03 11:02:43;;;;;;;2.00;1.90;;;26.70;90.40;;;;;;5034974;28;20193;-70
2022/07/03 11:05:35;;;;;;;1.70;1.60;;;26.80;90.80;;;;;;5027828;28;20243;-70
2022/07/03 11:08:20;;;;;;;1.52;1.50;;;27.00;91.10;;;;;;5020790;28;20216;-71
2022/07/03 11:11:54;;;;;;;2.03;1.92;;;27.10;91.00;;;;;;5027470;28;20232;-70
2022/07/03 11:13:34;;;;;;;1.75;1.65;;;27.10;89.90;;;;;;5032922;28;20647;-70
2022/07/03 11:16:16;;;;;;;1.80;1.70;;;27.30;88.10;;;;;;5045633;28;20219;-70
2022/07/03 11:18:42;;;;;;;2.05;1.90;;;27.30;90.00;;;;;;5044548;28;20218;-70
2022/07/03 11:21:34;;;;;;;2.00;1.80;;;27.40;89.90;;;;;;5044836;28;20244;-70
2022/07/03 11:24:24;;;;;;;2.38;1.83;;;27.40;90.00;;;;;;5045050;28;20298;-70
2022/07/03 11:27:20;;;;;;;1.80;1.70;;;27.50;89.40;;;;;;5045136;28;20682;-70
2022/07/03 11:29:53;;;;;;;4.00;2.03;;;27.70;90.40;;;;;;5044358;28;20684;-70
2022/07/03 11:32:45;;;;;;;1.90;1.80;;;27.80;90.90;;;;;;5025442;28;20193;-70
2022/07/03 11:35:47;;;;;;;4.03;2.20;;;27.90;88.80;;;;;;5025912;28;20197;-71
2022/07/03 11:38:15;;;;;;;2.15;1.92;;;28.10;88.40;;;;;;5025410;28;20315;-70
2022/07/03 11:40:46;;;;;;;1.85;1.75;;;28.20;87.90;;;;;;5025398;28;20209;-70
2022/07/03 11:43:13;;;;;;;2.30;1.73;;;28.40;88.20;;;;;;5029399;28;20211;-70
2022/07/03 11:45:41;;;;;;;2.22;1.90;;;28.50;88.20;;;;;;5045239;28;20235;-71
2022/07/03 11:48:10;;;;;;;2.15;1.98;;;28.70;87.20;;;;;;5044876;28;20239;-71
2022/07/03 11:50:38;;;;;;;1.88;1.77;;;28.80;87.50;;;;;;5045274;28;20208;-71
2022/07/03 11:53:23;;;;;;;1.83;1.80;;;28.90;85.70;;;;;;5045366;28;20215;-71
2022/07/03 11:55:53;;;;;;;2.97;1.63;;;29.00;87.40;;;;;;5039619;28;20218;-70
2022/07/03 11:58:21;;;;;;;2.25;1.63;;;29.20;87.60;;;;;;5025453;28;20212;-70
2022/07/03 12:00:50;;;;;;;1.90;1.30;;;29.30;86.20;;;;;;5025336;28;20208;-71
2022/07/03 12:03:21;;;;;;;1.65;1.55;;;29.40;81.80;;;;;;5029918;28;20262;-70
2022/07/03 12:05:56;;;;;;;1.63;1.55;;;29.50;81.70;;;;;;5034518;28;20236;-70
2022/07/03 12:08:25;;;;;;;1.50;1.40;;;29.60;81.40;;;;;;5048938;28;20218;-71
2022/07/03 12:11:04;;;;;;;1.73;1.70;;;29.70;81.10;;;;;;5048882;28;20228;-70
2022/07/03 12:13:33;;;;;;;1.25;1.25;;;29.90;80.60;;;;;;5042127;28;20240;-70
2022/07/03 12:16:09;;;;;;;1.60;1.50;;;30.00;79.70;;;;;;5029390;28;20263;-71
2022/07/03 12:18:47;;;;;;;1.67;1.58;;;30.10;78.20;;;;;;5029611;28;20214;-71
2022/07/03 12:21:15;;;;;;;1.38;1.27;;;30.20;78.10;;;;;;5028442;28;20196;-71
2022/07/03 12:23:47;;;;;;;1.27;1.27;;;30.20;77.40;;;;;;5041026;28;20209;-71
2022/07/03 12:26:26;;;;;;;1.33;1.17;;;30.40;77.10;;;;;;5047520;28;20242;-70
2022/07/03 12:28:53;;;;;;;1.58;1.48;;;30.50;78.20;;;;;;5048098;28;20208;-70
2022/07/03 12:31:20;;;;;;;1.60;1.50;;;30.60;75.40;;;;;;5048159;28;20236;-70
2022/07/03 12:33:47;;;;;;;1.73;1.40;;;30.60;75.90;;;;;;5048631;28;20689;-70
2022/07/03 12:36:14;;;;;;;1.58;1.48;;;30.70;77.20;;;;;;5048267;28;20219;-70
2022/07/03 12:38:43;;;;;;;1.75;1.65;;;30.70;78.00;;;;;;5048506;28;20569;-70
2022/07/03 12:41:11;;;;;;;1.77;1.67;;;30.90;78.70;;;;;;5048626;28;20230;-70
2022/07/03 12:43:40;;;;;;;1.42;1.33;;;30.90;79.20;;;;;;5040870;28;20251;-70
2022/07/03 12:46:19;;;;;;;1.70;1.60;;;31.00;77.50;;;;;;5031118;28;20260;-70
2022/07/03 12:48:46;;;;;;;1.58;1.40;;;31.10;76.80;;;;;;5047917;28;20200;-71
2022/07/03 12:51:13;;;;;;;2.05;1.70;;;31.20;77.60;;;;;;5047918;28;20239;-70
2022/07/03 12:53:41;;;;;;;1.30;1.30;;;31.30;75.90;;;;;;5047573;28;20492;-70
2022/07/03 12:56:10;;;;;;;1.67;1.58;;;31.40;75.50;;;;;;5033346;28;20205;-71
2022/07/03 13:01:29;;;;;;;1.40;1.30;;;31.60;74.40;;;;;;5046273;28;20222;-70
2022/07/03 13:03:55;;;;;;;1.70;1.27;;;31.80;75.80;;;;;;5048018;28;20208;-70
2022/07/03 13:06:24;;;;;;;1.73;1.63;;;32.00;73.80;;;;;;5047397;28;20725;-70
2022/07/03 13:08:55;;;;;;;1.48;1.40;;;32.00;72.90;;;;;;5047747;28;20674;-71
2022/07/03 13:11:30;;;;;;;1.65;1.55;;;32.10;73.00;;;;;;5047332;28;20727;-70
2022/07/03 13:14:05;;;;;;;2.53;1.40;;;32.20;74.00;;;;;;5047431;28;20216;-70
2022/07/03 13:16:39;;;;;;;1.80;1.60;;;32.30;73.70;;;;;;5048091;28;20719;-70